Latest Weather Observations for Yulara

IDD60801

Issued at 4:35 pm CST Thursday 31 July 2014 (issued every 30 minutes, with the page automatically refreshed every 10 minutes)

About weather observations | Map of weather stations | Latest weather observations for NT | Other Formats
Station Details ID: 015635 Name: YULARA AIRPORT Lat: -25.19 Lon: 130.97 Height: 492.0 m
Data from the previous 72 hours. | See also: Recent months at Yulara
Date/Time
CST
Temp
°C
App
Temp
°C
Dew
Point
Rel
Hum
%
Delta-T
°C
Wind Press
QNH
hPa
Press
MSL
hPa
Rain
since 9 am
mm
Dir
 
Spd
km/h
Gust
km/h
Spd
kts
Gust
kts
31/04:30pm 26.1 20.3 -1.7 16 12.8 W 19 32 10 17 1017.2 1016.9 0.0
31/04:00pm 25.7 19.8 -2.0 16 12.6 W 19 24 10 13 1017.2 - 0.0
31/03:30pm 26.1 20.1 -1.7 16 12.8 W 20 35 11 19 1017.4 1017.1 0.0
31/03:00pm 26.1 19.8 -0.8 17 12.6 WSW 22 30 12 16 1017.4 1017.1 0.0
31/02:30pm 25.5 20.2 -0.5 18 12.2 SW 17 26 9 14 1017.8 1017.5 0.0
31/02:00pm 25.9 20.3 -0.2 18 12.3 WNW 19 26 10 14 1018.1 - 0.0
31/01:30pm 25.1 18.5 -0.1 19 11.9 WSW 24 35 13 19 1018.7 1018.5 0.0
31/01:00pm 24.3 19.9 0.6 21 11.2 W 13 22 7 12 1019.3 - 0.0
31/12:30pm 23.9 19.6 0.9 22 10.9 SSW 13 17 7 9 1019.8 1019.5 0.0
31/12:00pm 23.8 19.5 0.8 22 10.9 SSW 13 24 7 13 1020.3 1020.0 0.0
31/11:30am 23.0 19.1 1.4 24 10.3 SSW 11 20 6 11 1020.7 1020.5 0.0
31/11:00am 22.2 17.5 0.7 24 10.1 SSW 15 20 8 11 1021.1 - 0.0
31/10:30am 21.2 16.1 1.0 26 9.4 S 17 24 9 13 1021.2 1020.9 0.0
31/10:00am 19.9 14.8 0.9 28 8.8 S 17 22 9 12 1021.3 - 0.0
31/09:30am 18.4 13.7 1.0 31 7.9 SSW 15 19 8 10 1021.1 1020.8 0.0
31/09:00am 16.4 12.0 0.5 34 7.0 SSW 13 19 7 10 1020.8 1020.6 0.0
31/08:30am 12.7 8.7 0.5 43 5.2 SSW 11 15 6 8 1020.9 1020.7 0.0
31/08:00am 8.9 4.4 -0.4 52 3.8 SSW 13 15 7 8 1020.2 - 0.0
31/07:30am 8.2 4.0 -0.8 53 3.6 SSW 11 15 6 8 1020.1 1019.8 0.0
31/07:00am 7.4 3.2 -1.0 55 3.3 SSW 11 13 6 7 1019.9 - 0.0
31/06:30am 7.8 3.2 -1.2 53 3.5 SSW 13 17 7 9 1019.7 1019.4 0.0
31/06:00am 8.8 4.2 -1.0 50 3.9 SSW 13 17 7 9 1019.5 1019.2 0.0
31/05:30am 8.4 3.8 -0.9 52 3.7 SSW 13 17 7 9 1019.3 1019.0 0.0
31/05:00am 6.0 3.0 -1.9 57 3.0 S 4 17 2 9 1019.2 - 0.0
31/04:30am 7.2 2.9 -1.7 53 3.4 S 11 13 6 7 1019.4 1019.1 0.0
31/04:00am 8.8 4.2 -1.3 49 4.0 SSW 13 17 7 9 1019.5 - 0.0
31/03:30am 7.4 3.8 -1.8 52 3.5 S 7 11 4 6 1019.3 1019.0 0.0
31/03:00am 7.5 3.7 -0.7 56 3.2 SSW 9 11 5 6 1019.3 1019.0 0.0
31/02:30am 5.8 3.6 -1.6 59 2.8 CALM 0 0 0 0 1019.4 1019.1 0.0
31/02:00am 6.5 4.3 -1.2 58 3.0 CALM 0 0 0 0 1019.7 - 0.0
31/01:30am 7.7 5.5 -1.3 53 3.5 CALM 0 0 0 0 1019.9 1019.6 0.0
31/01:00am 7.9 5.8 -1.1 53 3.6 CALM 0 0 0 0 1019.9 - 0.0
31/12:30am 8.7 5.4 -0.9 51 3.8 S 6 7 3 4 1020.0 1019.7 0.0
31/12:00am 8.5 6.4 -1.0 51 3.8 CALM 0 7 0 4 1020.1 1019.8 0.0
 
Date/Time
CST
Temp
°C
App
Temp
°C
Dew
Point
Rel
Hum
%
Delta-T
°C
Wind Press
QNH
hPa
Press
MSL
hPa
Rain
since 9 am
mm
Dir
 
Spd
km/h
Gust
km/h
Spd
kts
Gust
kts
30/11:30pm 9.4 7.2 -1.3 47 4.3 CALM 0 0 0 0 1020.1 1019.8 0.0
30/11:00pm 10.7 7.3 -0.7 45 4.7 S 7 9 4 5 1020.2 - 0.0
30/10:30pm 10.4 6.9 -1.0 45 4.6 S 7 9 4 5 1020.2 1019.9 0.0
30/10:00pm 10.5 8.1 -0.6 46 4.6 SSE 2 6 1 3 1020.2 - 0.0
30/09:30pm 10.8 8.7 -0.6 45 4.7 CALM 0 6 0 3 1020.3 1020.0 0.0
30/09:00pm 11.5 9.4 -0.9 42 5.1 CALM 0 0 0 0 1020.2 1019.9 0.0
30/08:30pm 12.8 10.7 -0.8 39 5.7 CALM 0 0 0 0 1020.1 1019.8 0.0
30/08:00pm 14.0 10.7 -1.2 35 6.4 SW 6 7 3 4 1020.0 - 0.0
30/07:30pm 15.2 11.8 -1.8 31 7.1 WSW 6 7 3 4 1019.9 1019.6 0.0
30/07:02pm 17.4 14.1 -1.3 28 8.1 W 6 7 3 4 1019.8 - 0.0
30/07:00pm 17.5 14.1 -1.7 27 8.2 W 6 7 3 4 1019.8 - 0.0
30/06:39pm 19.6 16.1 -1.5 24 9.3 WNW 7 9 4 5 1019.7 - 0.0
30/06:30pm 21.3 17.4 -1.3 22 10.1 WNW 9 11 5 6 1019.6 1019.3 0.0
30/06:00pm 24.2 20.9 -1.6 18 11.7 WNW 6 11 3 6 1019.6 1019.3 0.0
30/05:30pm 25.3 21.8 -1.5 17 12.3 W 7 15 4 8 1019.4 1019.1 0.0
30/05:00pm 25.4 21.5 -1.4 17 12.4 NNW 9 19 5 10 1019.4 - 0.0
30/04:30pm 25.0 20.2 -2.5 16 12.4 NNW 13 20 7 11 1019.3 1019.0 0.0
30/04:00pm 25.4 20.8 -1.4 17 12.4 NW 13 22 7 12 1019.4 - 0.0
30/03:30pm 25.9 21.6 -1.8 16 12.7 N 11 26 6 14 1019.6 1019.3 0.0
30/03:00pm 26.1 22.2 -1.7 16 12.8 NNW 9 17 5 9 1019.9 1019.6 0.0
30/02:30pm 25.1 21.8 -1.6 17 12.2 N 6 13 3 7 1020.3 1020.0 0.0
30/02:00pm 25.5 20.9 -1.3 17 12.4 N 13 19 7 10 1020.8 - 0.0
30/01:30pm 24.7 20.1 -1.2 18 11.9 N 13 24 7 13 1021.6 1021.3 0.0
30/01:00pm 24.6 20.5 -0.5 19 11.7 ENE 11 20 6 11 1022.2 - 0.0
30/12:30pm 23.4 18.0 -1.5 19 11.2 NNE 17 22 9 12 1022.8 1022.6 0.0
30/12:00pm 23.7 18.4 -0.6 20 11.2 NE 17 24 9 13 1023.4 1023.1 0.0
30/11:30am 22.0 17.4 -1.3 21 10.4 ENE 13 24 7 13 1024.0 1023.8 0.0
30/11:00am 20.7 14.8 -2.4 21 10.1 NE 19 20 10 11 1024.5 - 0.0
30/10:30am 20.0 14.6 -1.7 23 9.5 E 17 22 9 12 1024.7 1024.5 0.0
30/10:00am 18.6 12.7 -2.3 24 8.9 E 19 28 10 15 1024.7 - 0.0
30/09:30am 16.2 11.3 -0.5 32 7.2 ESE 15 20 8 11 1024.7 1024.5 0.0
30/09:00am 13.9 9.9 0.5 40 5.8 SE 11 17 6 9 1024.5 1024.3 0.0
30/08:30am 11.2 7.7 1.5 51 4.2 SSE 9 13 5 7 1024.2 - 0.0
30/08:00am 6.9 2.8 0.1 62 2.7 S 11 15 6 8 1024.0 - 0.0
30/07:30am 5.7 1.2 -0.6 64 2.5 S 13 15 7 8 1023.6 - 0.0
30/07:00am 6.3 1.8 0.0 64 2.5 S 13 15 7 8 1023.4 - 0.0
30/06:30am 6.1 2.0 -0.4 63 2.6 S 11 13 6 7 1023.4 - 0.0
30/06:00am 6.2 1.7 -0.3 63 2.6 S 13 15 7 8 1023.1 1022.9 0.0
30/05:30am 6.6 2.1 -0.4 61 2.8 S 13 19 7 10 1022.8 - 0.0
30/05:00am 7.1 3.0 -0.4 59 3.0 S 11 15 6 8 1022.9 - 0.0
30/04:30am 8.1 3.3 -0.1 56 3.3 S 15 19 8 10 1022.9 - 0.0
30/04:00am 8.5 4.4 0.0 55 3.5 S 11 13 6 7 1023.0 - 0.0
30/03:30am 8.6 4.9 -0.2 54 3.6 S 9 11 5 6 1023.0 - 0.0
30/03:00am 8.5 4.4 -0.5 53 3.6 SSE 11 13 6 7 1023.1 1022.9 0.0
30/02:30am 9.8 6.1 0.2 51 4.0 S 9 11 5 6 1023.1 - 0.0
30/02:00am 10.0 6.2 -0.5 48 4.3 SSE 9 9 5 5 1023.5 - 0.0
30/01:30am 10.6 6.8 -0.5 46 4.6 S 9 11 5 6 1023.6 - 0.0
30/01:00am 11.1 7.3 -0.7 44 4.9 S 9 11 5 6 1023.6 - 0.0
30/12:30am 12.1 8.7 -0.4 42 5.2 S 7 11 4 6 1023.6 - 0.0
30/12:00am 13.9 9.8 -0.5 37 6.1 SSE 11 13 6 7 1023.5 1023.2 0.0
 
Date/Time
CST
Temp
°C
App
Temp
°C
Dew
Point
Rel
Hum
%
Delta-T
°C
Wind Press
QNH
hPa
Press
MSL
hPa
Rain
since 9 am
mm
Dir
 
Spd
km/h
Gust
km/h
Spd
kts
Gust
kts
29/11:30pm 13.3 9.1 -0.7 38 5.9 S 11 13 6 7 1023.7 - 0.0
29/11:00pm 12.1 8.3 -1.1 40 5.4 S 9 13 5 7 1023.7 - 0.0
29/10:30pm 11.7 7.8 -1.4 40 5.3 S 9 15 5 8 1023.8 - 0.0
29/10:00pm 12.5 9.3 -0.7 40 5.5 SSE 6 20 3 11 1023.7 - 0.0
29/09:30pm 10.7 8.5 -1.7 42 5.0 CALM 0 0 0 0 1023.6 - 0.0
29/09:00pm 12.0 9.7 -2.2 37 5.7 CALM 0 0 0 0 1023.6 1023.3 0.0
29/08:30pm 12.6 10.3 -2.1 36 6.0 CALM 0 0 0 0 1023.2 - 0.0
29/08:00pm 14.9 11.9 -2.1 31 7.1 SE 4 6 2 3 1023.0 - 0.0
29/07:30pm 16.8 13.5 -0.9 30 7.7 SSE 6 13 3 7 1022.6 - 0.0
29/07:00pm 16.4 14.1 -2.6 27 7.9 CALM 0 0 0 0 1022.1 - 0.0
29/06:30pm 19.1 16.8 -2.5 23 9.2 CALM 0 0 0 0 1021.9 - 0.0
29/06:00pm 24.1 21.3 -3.3 16 12.0 SE 2 6 1 3 1021.6 1021.3 0.0
29/05:30pm 24.8 21.6 -3.6 15 12.5 S 4 11 2 6 1021.3 - 0.0
29/05:00pm 25.2 21.7 -3.2 15 12.6 S 6 13 3 7 1021.0 - 0.0
29/04:30pm 25.4 21.3 -3.1 15 12.7 NE 9 20 5 11 1021.0 - 0.0
29/04:00pm 25.6 21.4 -3.8 14 13.0 NE 9 15 5 8 1021.0 - 0.0
29/03:30pm 26.1 22.6 -2.5 15 13.0 W 6 13 3 7 1021.1 - 0.0
29/03:00pm 24.8 21.0 -3.6 15 12.5 SSE 7 11 4 6 1021.4 1021.1 0.0
29/02:30pm 25.0 20.5 -3.4 15 12.6 SSE 11 19 6 10 1021.6 - 0.0
29/02:00pm 25.2 21.5 -3.2 15 12.6 SW 7 15 4 8 1021.9 - 0.0
29/01:30pm 24.8 20.4 -2.7 16 12.3 E 11 20 6 11 1022.4 - 0.0
29/01:00pm 24.9 20.7 -3.5 15 12.5 E 9 15 5 8 1023.1 - 0.0
29/12:30pm 24.6 19.7 -3.7 15 12.4 ENE 13 22 7 12 1023.7 - 0.0
29/12:00pm 23.5 17.4 -3.7 16 11.8 E 19 24 10 13 1024.1 1023.8 0.0
29/11:30am 22.8 16.6 -3.5 17 11.4 E 20 28 11 15 1024.4 - 0.0
29/11:00am 22.3 16.7 -3.1 18 11.1 E 17 22 9 12 1024.7 - 0.0
29/10:30am 20.8 16.0 -2.3 21 10.1 E 13 20 7 11 1024.8 - 0.0
29/10:00am 19.1 14.8 -1.9 24 9.1 ESE 11 15 6 8 1025.0 - 0.0
29/09:30am 17.0 13.0 -2.1 27 8.1 SE 9 13 5 7 1024.8 - 0.0
29/09:00am 14.2 12.1 -0.6 36 6.3 CALM 0 6 0 3 1024.6 1024.4 0.0
29/08:30am 10.6 7.4 -0.8 45 4.7 SE 6 11 3 6 1024.4 - 0.0
29/08:00am 7.8 3.2 -1.4 52 3.6 S 13 15 7 8 1024.0 - 0.0
29/07:30am 6.9 1.8 -1.7 54 3.3 SSW 15 17 8 9 1023.5 - 0.0
29/07:00am 6.8 2.5 -1.6 55 3.2 SSW 11 19 6 10 1023.1 - 0.0
29/06:30am 7.0 2.3 -1.7 54 3.4 S 13 15 7 8 1022.8 - 0.0
29/06:00am 7.2 2.9 -1.7 53 3.4 SSW 11 17 6 9 1022.7 1022.5 0.0
29/05:30am 7.9 2.5 -1.6 51 3.7 S 17 20 9 11 1022.4 - 0.0
29/05:00am 8.2 3.5 -1.6 50 3.8 SSW 13 15 7 8 1022.5 - 0.0
29/04:30am 10.0 4.6 -1.4 45 4.6 S 17 22 9 12 1022.4 - 0.0
29/04:00am 10.0 4.6 -1.1 46 4.5 SSW 17 19 9 10 1022.2 - 0.0
29/03:30am 9.9 4.6 -0.9 47 4.4 SSW 17 20 9 11 1022.2 - 0.0
29/03:00am 10.1 5.1 -1.0 46 4.5 SSW 15 20 8 11 1022.2 1021.9 0.0
29/02:30am 9.8 4.9 -0.7 48 4.3 SSW 15 17 8 9 1022.2 - 0.0
29/02:00am 10.7 6.2 -0.4 46 4.6 S 13 17 7 9 1022.3 - 0.0
29/01:30am 10.6 6.5 -0.2 47 4.5 S 11 13 6 7 1022.3 - 0.0
29/01:00am 10.1 6.9 -0.4 48 4.3 S 6 9 3 5 1022.4 - 0.0
29/12:30am 11.6 7.1 -0.2 44 4.9 S 13 17 7 9 1022.3 - 0.0
29/12:00am 12.9 8.5 0.3 42 5.4 SSW 13 15 7 8 1022.3 1022.0 0.0
 
Date/Time
CST
Temp
°C
App
Temp
°C
Dew
Point
Rel
Hum
%
Delta-T
°C
Wind Press
QNH
hPa
Press
MSL
hPa
Rain
since 9 am
mm
Dir
 
Spd
km/h
Gust
km/h
Spd
kts
Gust
kts
28/11:30pm 12.0 8.0 0.8 46 4.8 SSW 11 15 6 8 1022.2 - 0.0
28/11:00pm 10.8 8.1 0.5 49 4.4 WSW 4 11 2 6 1022.0 - 0.0
28/10:30pm 11.8 9.8 0.0 44 5.0 CALM 0 0 0 0 1022.0 - 0.0
28/10:00pm 12.5 10.5 -0.4 41 5.4 CALM 0 0 0 0 1021.9 - 0.0
28/09:30pm 13.3 11.0 0.3 41 5.6 SW 2 7 1 4 1021.8 - 0.0
28/09:00pm 13.6 11.8 0.9 42 5.5 CALM 0 0 0 0 1021.5 1021.2 0.0
28/08:30pm 15.3 13.5 1.4 39 6.2 CALM 0 0 0 0 1021.1 - 0.0
28/08:00pm 15.1 13.2 0.5 37 6.4 CALM 0 0 0 0 1020.9 - 0.0
28/07:30pm 16.4 14.5 0.5 34 7.1 CALM 0 0 0 0 1020.6 - 0.0
28/07:00pm 18.1 16.1 -0.2 29 8.1 CALM 0 0 0 0 1020.4 - 0.0
28/06:30pm 21.1 19.2 0.3 25 9.6 CALM 0 0 0 0 1020.1 - 0.0
28/06:00pm 25.0 22.7 0.5 20 11.6 WNW 2 7 1 4 1019.8 1019.5 0.0
28/05:30pm 25.7 22.3 -0.4 18 12.3 W 7 15 4 8 1019.7 - 0.0
28/05:00pm 26.1 22.4 0.0 18 12.4 WNW 9 19 5 10 1019.5 - 0.0

Other Formats:

Comma delimited format used in spreadsheet applications
http://www.bom.gov.au/fwo/IDD60801/IDD60801.94462.axf

JavaScript Object Notation format (JSON) in row-major order
http://www.bom.gov.au/fwo/IDD60801/IDD60801.94462.json